sensor_id;sensor_type;location;lat;lon;timestamp;noise_LAeq;noise_LA_min;noise_LA_max;noise_LA01;noise_LA95
29182;Laerm;19872;48.800;8.996;2023-05-10T00:00:58;49.29;36.93;61.49;;
29182;Laerm;19872;48.800;8.996;2023-05-10T00:03:24;39.01;36.44;50.32;;
29182;Laerm;19872;48.800;8.996;2023-05-10T00:05:50;39.16;36.78;45.39;;
29182;Laerm;19872;48.800;8.996;2023-05-10T00:08:16;49.22;37.29;61.01;;
29182;Laerm;19872;48.800;8.996;2023-05-10T00:10:42;37.86;35.24;46.35;;
29182;Laerm;19872;48.800;8.996;2023-05-10T00:13:07;43.01;36.51;52.54;;
29182;Laerm;19872;48.800;8.996;2023-05-10T00:15:33;52.84;36.97;64.03;;
29182;Laerm;19872;48.800;8.996;2023-05-10T00:17:59;38.08;35.65;44.76;;
29182;Laerm;19872;48.800;8.996;2023-05-10T00:20:25;37.44;35.47;46.45;;
29182;Laerm;19872;48.800;8.996;2023-05-10T00:22:54;46.53;35.67;57.58;;
29182;Laerm;19872;48.800;8.996;2023-05-10T00:25:20;37.46;35.55;47.18;;
29182;Laerm;19872;48.800;8.996;2023-05-10T00:27:46;37.19;35.55;48.00;;
29182;Laerm;19872;48.800;8.996;2023-05-10T00:30:12;52.28;34.22;64.91;;
29182;Laerm;19872;48.800;8.996;2023-05-10T00:32:38;36.79;34.07;47.17;;
29182;Laerm;19872;48.800;8.996;2023-05-10T00:35:04;38.43;35.21;51.06;;
29182;Laerm;19872;48.800;8.996;2023-05-10T00:37:30;45.88;34.94;58.09;;
29182;Laerm;19872;48.800;8.996;2023-05-10T00:39:56;37.15;34.62;42.23;;
29182;Laerm;19872;48.800;8.996;2023-05-10T00:42:22;37.07;34.41;41.89;;
29182;Laerm;19872;48.800;8.996;2023-05-10T00:44:48;55.23;36.29;68.94;;
29182;Laerm;19872;48.800;8.996;2023-05-10T00:47:14;38.56;34.51;46.31;;
29182;Laerm;19872;48.800;8.996;2023-05-10T00:49:41;45.17;35.07;57.74;;
29182;Laerm;19872;48.800;8.996;2023-05-10T00:52:07;40.70;34.78;52.82;;
29182;Laerm;19872;48.800;8.996;2023-05-10T00:54:33;40.61;36.46;46.76;;
29182;Laerm;19872;48.800;8.996;2023-05-10T00:56:59;38.55;36.53;46.51;;
29182;Laerm;19872;48.800;8.996;2023-05-10T00:59:26;48.55;35.89;59.76;;
29182;Laerm;19872;48.800;8.996;2023-05-10T01:01:52;53.39;33.98;66.40;;
29182;Laerm;19872;48.800;8.996;2023-05-10T01:04:18;37.81;35.24;42.07;;
29182;Laerm;19872;48.800;8.996;2023-05-10T01:06:50;51.61;36.04;62.42;;
29182;Laerm;19872;48.800;8.996;2023-05-10T01:09:16;39.06;34.82;45.78;;
29182;Laerm;19872;48.800;8.996;2023-05-10T01:11:43;49.08;33.98;60.80;;
29182;Laerm;19872;48.800;8.996;2023-05-10T01:14:09;36.55;33.73;42.95;;
29182;Laerm;19872;48.800;8.996;2023-05-10T01:16:36;36.88;33.59;45.75;;
29182;Laerm;19872;48.800;8.996;2023-05-10T01:19:03;36.68;34.15;44.37;;
29182;Laerm;19872;48.800;8.996;2023-05-10T01:21:38;37.51;35.21;42.79;;
29182;Laerm;19872;48.800;8.996;2023-05-10T01:24:30;47.55;36.34;58.74;;
29182;Laerm;19872;48.800;8.996;2023-05-10T01:34:44;50.75;37.81;64.56;;
29182;Laerm;19872;48.800;8.996;2023-05-10T01:37:15;46.66;36.83;58.67;;
29182;Laerm;19872;48.800;8.996;2023-05-10T01:39:46;40.74;35.35;50.78;;
29182;Laerm;19872;48.800;8.996;2023-05-10T01:42:20;43.21;35.30;54.01;;
29182;Laerm;19872;48.800;8.996;2023-05-10T01:47:14;49.70;34.37;62.31;;
29182;Laerm;19872;48.800;8.996;2023-05-10T01:49:50;52.35;36.77;63.38;;
29182;Laerm;19872;48.800;8.996;2023-05-10T01:52:22;45.00;36.86;62.05;;
29182;Laerm;19872;48.800;8.996;2023-05-10T01:54:55;49.10;36.19;60.50;;
29182;Laerm;19872;48.800;8.996;2023-05-10T01:57:21;39.08;35.66;44.48;;
29182;Laerm;19872;48.800;8.996;2023-05-10T01:59:49;39.56;36.35;45.84;;
29182;Laerm;19872;48.800;8.996;2023-05-10T02:02:15;49.25;36.43;61.88;;
29182;Laerm;19872;48.800;8.996;2023-05-10T02:04:42;46.06;36.16;60.55;;
29182;Laerm;19872;48.800;8.996;2023-05-10T02:07:09;45.31;37.03;55.92;;
29182;Laerm;19872;48.800;8.996;2023-05-10T02:09:36;47.59;36.67;57.13;;
29182;Laerm;19872;48.800;8.996;2023-05-10T02:12:02;50.13;36.71;62.13;;
29182;Laerm;19872;48.800;8.996;2023-05-10T02:14:30;49.34;37.80;61.33;;
29182;Laerm;19872;48.800;8.996;2023-05-10T02:16:58;41.31;36.67;49.64;;
29182;Laerm;19872;48.800;8.996;2023-05-10T02:19:25;45.65;36.98;56.17;;
29182;Laerm;19872;48.800;8.996;2023-05-10T02:21:51;49.75;37.15;65.84;;
29182;Laerm;19872;48.800;8.996;2023-05-10T02:24:18;50.05;37.21;60.88;;
29182;Laerm;19872;48.800;8.996;2023-05-10T02:26:45;39.36;35.74;50.78;;
29182;Laerm;19872;48.800;8.996;2023-05-10T02:29:12;48.57;37.10;61.40;;
29182;Laerm;19872;48.800;8.996;2023-05-10T02:31:38;52.91;38.31;62.64;;
29182;Laerm;19872;48.800;8.996;2023-05-10T02:34:04;49.71;38.63;58.28;;
29182;Laerm;19872;48.800;8.996;2023-05-10T02:36:31;51.11;39.24;60.75;;
29182;Laerm;19872;48.800;8.996;2023-05-10T02:38:58;51.46;39.83;62.79;;
29182;Laerm;19872;48.800;8.996;2023-05-10T02:41:26;55.02;38.95;68.26;;
29182;Laerm;19872;48.800;8.996;2023-05-10T02:43:53;52.58;39.79;64.32;;
29182;Laerm;19872;48.800;8.996;2023-05-10T02:46:21;51.79;39.85;62.78;;
29182;Laerm;19872;48.800;8.996;2023-05-10T02:48:47;52.28;39.28;63.82;;
29182;Laerm;19872;48.800;8.996;2023-05-10T02:51:13;52.91;40.20;67.10;;
29182;Laerm;19872;48.800;8.996;2023-05-10T02:53:43;53.17;39.15;64.26;;
29182;Laerm;19872;48.800;8.996;2023-05-10T02:56:14;56.27;42.46;64.25;;
29182;Laerm;19872;48.800;8.996;2023-05-10T02:58:40;51.10;39.88;60.40;;
29182;Laerm;19872;48.800;8.996;2023-05-10T03:01:06;55.44;40.44;66.03;;
29182;Laerm;19872;48.800;8.996;2023-05-10T03:03:33;52.93;41.81;60.24;;
29182;Laerm;19872;48.800;8.996;2023-05-10T03:05:58;55.32;43.91;68.35;;
29182;Laerm;19872;48.800;8.996;2023-05-10T03:08:24;55.11;41.75;62.68;;
29182;Laerm;19872;48.800;8.996;2023-05-10T03:10:55;56.70;44.08;68.12;;
29182;Laerm;19872;48.800;8.996;2023-05-10T03:16:07;55.17;43.78;63.97;;
29182;Laerm;19872;48.800;8.996;2023-05-10T03:18:37;55.35;44.93;63.66;;
29182;Laerm;19872;48.800;8.996;2023-05-10T03:21:04;56.02;46.48;63.57;;
29182;Laerm;19872;48.800;8.996;2023-05-10T03:23:34;59.01;46.52;64.81;;
29182;Laerm;19872;48.800;8.996;2023-05-10T03:26:01;58.04;47.10;65.37;;
29182;Laerm;19872;48.800;8.996;2023-05-10T03:28:27;56.73;47.22;68.12;;
29182;Laerm;19872;48.800;8.996;2023-05-10T03:30:53;59.98;47.25;68.30;;
29182;Laerm;19872;48.800;8.996;2023-05-10T03:33:19;55.44;46.27;65.93;;
29182;Laerm;19872;48.800;8.996;2023-05-10T03:35:45;58.85;45.93;65.85;;
29182;Laerm;19872;48.800;8.996;2023-05-10T03:38:12;60.52;49.44;66.53;;
29182;Laerm;19872;48.800;8.996;2023-05-10T03:40:38;59.95;47.51;68.05;;
29182;Laerm;19872;48.800;8.996;2023-05-10T03:43:04;60.68;46.34;65.66;;
29182;Laerm;19872;48.800;8.996;2023-05-10T03:45:30;60.11;49.10;66.66;;
29182;Laerm;19872;48.800;8.996;2023-05-10T03:47:56;59.11;45.86;67.06;;
29182;Laerm;19872;48.800;8.996;2023-05-10T03:50:22;57.64;46.23;65.51;;
29182;Laerm;19872;48.800;8.996;2023-05-10T03:52:48;58.16;45.83;66.15;;
29182;Laerm;19872;48.800;8.996;2023-05-10T03:55:14;57.98;47.54;65.37;;
29182;Laerm;19872;48.800;8.996;2023-05-10T03:57:40;59.90;47.88;67.71;;
29182;Laerm;19872;48.800;8.996;2023-05-10T04:00:06;60.27;46.51;68.25;;
29182;Laerm;19872;48.800;8.996;2023-05-10T04:02:32;62.48;47.20;68.55;;
29182;Laerm;19872;48.800;8.996;2023-05-10T04:04:58;63.61;51.42;74.02;;
29182;Laerm;19872;48.800;8.996;2023-05-10T04:07:23;59.85;47.49;65.63;;
29182;Laerm;19872;48.800;8.996;2023-05-10T04:09:49;57.57;45.51;64.39;;
29182;Laerm;19872;48.800;8.996;2023-05-10T04:12:15;58.77;45.53;68.62;;
29182;Laerm;19872;48.800;8.996;2023-05-10T04:14:41;62.89;46.97;70.79;;
29182;Laerm;19872;48.800;8.996;2023-05-10T04:17:07;59.70;51.77;65.48;;
29182;Laerm;19872;48.800;8.996;2023-05-10T04:19:33;61.22;45.57;81.92;;
29182;Laerm;19872;48.800;8.996;2023-05-10T04:21:59;61.21;50.41;68.68;;
29182;Laerm;19872;48.800;8.996;2023-05-10T04:24:25;62.08;53.45;76.53;;
29182;Laerm;19872;48.800;8.996;2023-05-10T04:26:51;60.22;46.96;67.95;;
29182;Laerm;19872;48.800;8.996;2023-05-10T04:29:17;59.21;46.76;66.96;;
29182;Laerm;19872;48.800;8.996;2023-05-10T04:31:42;61.93;48.98;67.96;;
29182;Laerm;19872;48.800;8.996;2023-05-10T04:34:08;62.11;47.35;69.77;;
29182;Laerm;19872;48.800;8.996;2023-05-10T04:36:34;62.91;53.17;72.52;;
29182;Laerm;19872;48.800;8.996;2023-05-10T04:39:01;61.35;51.55;68.39;;
29182;Laerm;19872;48.800;8.996;2023-05-10T04:41:28;62.67;47.24;68.70;;
29182;Laerm;19872;48.800;8.996;2023-05-10T04:43:54;61.57;49.50;65.92;;
29182;Laerm;19872;48.800;8.996;2023-05-10T04:46:20;61.03;50.14;66.75;;
29182;Laerm;19872;48.800;8.996;2023-05-10T04:48:46;62.16;50.05;68.72;;
29182;Laerm;19872;48.800;8.996;2023-05-10T04:51:11;64.58;55.15;69.45;;
29182;Laerm;19872;48.800;8.996;2023-05-10T04:53:37;61.74;47.56;68.07;;
29182;Laerm;19872;48.800;8.996;2023-05-10T04:56:03;63.32;46.65;67.51;;
29182;Laerm;19872;48.800;8.996;2023-05-10T04:58:30;62.22;47.49;69.37;;
29182;Laerm;19872;48.800;8.996;2023-05-10T05:00:55;63.46;51.93;69.68;;
29182;Laerm;19872;48.800;8.996;2023-05-10T05:03:21;63.94;54.83;70.69;;
29182;Laerm;19872;48.800;8.996;2023-05-10T05:05:47;63.29;52.17;67.73;;
29182;Laerm;19872;48.800;8.996;2023-05-10T05:08:13;63.83;55.44;68.27;;
29182;Laerm;19872;48.800;8.996;2023-05-10T05:10:39;63.28;53.12;69.84;;
29182;Laerm;19872;48.800;8.996;2023-05-10T05:13:05;64.33;56.19;78.84;;
29182;Laerm;19872;48.800;8.996;2023-05-10T05:15:31;64.18;50.79;73.62;;
29182;Laerm;19872;48.800;8.996;2023-05-10T05:17:57;64.72;57.83;74.52;;
29182;Laerm;19872;48.800;8.996;2023-05-10T05:20:23;63.42;51.35;77.28;;
29182;Laerm;19872;48.800;8.996;2023-05-10T05:22:49;63.99;55.07;68.15;;
29182;Laerm;19872;48.800;8.996;2023-05-10T05:25:15;65.09;51.96;73.45;;
29182;Laerm;19872;48.800;8.996;2023-05-10T05:27:41;64.75;57.24;77.85;;
29182;Laerm;19872;48.800;8.996;2023-05-10T05:30:07;64.96;55.63;69.60;;
29182;Laerm;19872;48.800;8.996;2023-05-10T05:32:33;63.35;57.53;72.42;;
29182;Laerm;19872;48.800;8.996;2023-05-10T05:34:59;63.89;59.83;68.00;;
29182;Laerm;19872;48.800;8.996;2023-05-10T05:37:25;63.16;49.77;69.63;;
29182;Laerm;19872;48.800;8.996;2023-05-10T05:39:51;65.24;57.42;70.67;;
29182;Laerm;19872;48.800;8.996;2023-05-10T05:42:17;65.35;55.45;70.52;;
29182;Laerm;19872;48.800;8.996;2023-05-10T05:44:44;65.91;59.67;73.61;;
29182;Laerm;19872;48.800;8.996;2023-05-10T05:47:10;65.01;53.51;69.86;;
29182;Laerm;19872;48.800;8.996;2023-05-10T05:49:35;65.39;48.82;70.43;;
29182;Laerm;19872;48.800;8.996;2023-05-10T05:52:02;64.12;47.30;70.45;;
29182;Laerm;19872;48.800;8.996;2023-05-10T05:54:28;65.49;57.39;71.25;;
29182;Laerm;19872;48.800;8.996;2023-05-10T05:56:55;65.14;56.47;71.70;;
29182;Laerm;19872;48.800;8.996;2023-05-10T05:59:21;64.02;55.62;69.92;;
29182;Laerm;19872;48.800;8.996;2023-05-10T06:01:47;63.19;51.09;67.98;;
29182;Laerm;19872;48.800;8.996;2023-05-10T06:04:13;63.91;50.31;68.73;;
29182;Laerm;19872;48.800;8.996;2023-05-10T06:06:39;63.65;53.79;68.67;;
29182;Laerm;19872;48.800;8.996;2023-05-10T06:09:05;64.13;56.56;68.98;;
29182;Laerm;19872;48.800;8.996;2023-05-10T06:11:31;63.93;51.21;68.23;;
29182;Laerm;19872;48.800;8.996;2023-05-10T06:14:00;64.88;50.69;71.05;;
29182;Laerm;19872;48.800;8.996;2023-05-10T06:16:26;63.20;56.99;72.28;;
29182;Laerm;19872;48.800;8.996;2023-05-10T06:18:52;63.88;57.00;68.59;;
29182;Laerm;19872;48.800;8.996;2023-05-10T06:21:18;64.65;52.96;71.32;;
29182;Laerm;19872;48.800;8.996;2023-05-10T06:23:44;64.41;54.03;72.09;;
29182;Laerm;19872;48.800;8.996;2023-05-10T06:26:10;64.60;58.99;67.71;;
29182;Laerm;19872;48.800;8.996;2023-05-10T06:28:35;65.69;56.29;77.25;;
29182;Laerm;19872;48.800;8.996;2023-05-10T06:31:03;63.89;57.24;72.31;;
29182;Laerm;19872;48.800;8.996;2023-05-10T06:33:29;64.41;55.48;68.42;;
29182;Laerm;19872;48.800;8.996;2023-05-10T06:35:55;64.37;49.95;68.96;;
29182;Laerm;19872;48.800;8.996;2023-05-10T06:38:21;63.28;52.02;67.26;;
29182;Laerm;19872;48.800;8.996;2023-05-10T06:40:47;64.09;57.98;69.28;;
29182;Laerm;19872;48.800;8.996;2023-05-10T06:43:13;63.83;56.40;68.24;;
29182;Laerm;19872;48.800;8.996;2023-05-10T06:45:39;63.35;58.03;67.43;;
29182;Laerm;19872;48.800;8.996;2023-05-10T06:48:05;63.94;53.95;69.02;;
29182;Laerm;19872;48.800;8.996;2023-05-10T06:50:31;63.41;50.71;69.94;;
29182;Laerm;19872;48.800;8.996;2023-05-10T06:52:58;63.35;53.39;68.36;;
29182;Laerm;19872;48.800;8.996;2023-05-10T06:55:24;62.56;50.21;66.59;;
29182;Laerm;19872;48.800;8.996;2023-05-10T06:57:50;62.88;52.03;69.03;;
29182;Laerm;19872;48.800;8.996;2023-05-10T07:00:16;62.78;49.26;73.01;;
29182;Laerm;19872;48.800;8.996;2023-05-10T07:02:42;63.43;49.87;69.93;;
29182;Laerm;19872;48.800;8.996;2023-05-10T07:05:08;62.29;55.51;67.72;;
29182;Laerm;19872;48.800;8.996;2023-05-10T07:07:34;62.11;48.75;69.00;;
29182;Laerm;19872;48.800;8.996;2023-05-10T07:10:00;63.27;55.49;69.57;;
29182;Laerm;19872;48.800;8.996;2023-05-10T07:12:26;62.39;52.37;66.37;;
29182;Laerm;19872;48.800;8.996;2023-05-10T07:14:52;63.00;49.06;67.13;;
29182;Laerm;19872;48.800;8.996;2023-05-10T07:17:17;61.97;49.37;66.98;;
29182;Laerm;19872;48.800;8.996;2023-05-10T07:19:43;63.20;50.87;70.19;;
29182;Laerm;19872;48.800;8.996;2023-05-10T07:22:09;61.53;52.43;68.59;;
29182;Laerm;19872;48.800;8.996;2023-05-10T07:24:35;64.24;51.48;74.36;;
29182;Laerm;19872;48.800;8.996;2023-05-10T07:27:01;63.22;48.74;70.68;;
29182;Laerm;19872;48.800;8.996;2023-05-10T07:29:27;61.66;52.71;66.93;;
29182;Laerm;19872;48.800;8.996;2023-05-10T07:31:53;61.95;50.17;66.62;;
29182;Laerm;19872;48.800;8.996;2023-05-10T07:34:19;61.82;46.70;66.61;;
29182;Laerm;19872;48.800;8.996;2023-05-10T07:36:45;62.66;54.21;72.48;;
29182;Laerm;19872;48.800;8.996;2023-05-10T07:39:11;64.19;43.42;75.37;;
29182;Laerm;19872;48.800;8.996;2023-05-10T07:41:37;61.64;48.04;66.93;;
29182;Laerm;19872;48.800;8.996;2023-05-10T07:44:04;62.63;54.72;68.69;;
29182;Laerm;19872;48.800;8.996;2023-05-10T07:46:30;63.74;52.16;71.17;;
29182;Laerm;19872;48.800;8.996;2023-05-10T07:48:56;63.35;46.99;68.39;;
29182;Laerm;19872;48.800;8.996;2023-05-10T07:51:22;63.39;50.08;73.92;;
29182;Laerm;19872;48.800;8.996;2023-05-10T07:53:47;61.18;50.64;68.16;;
29182;Laerm;19872;48.800;8.996;2023-05-10T07:56:23;62.15;45.62;68.34;;
29182;Laerm;19872;48.800;8.996;2023-05-10T07:58:54;63.64;55.58;71.56;;
29182;Laerm;19872;48.800;8.996;2023-05-10T08:01:20;61.29;46.43;71.96;;
29182;Laerm;19872;48.800;8.996;2023-05-10T08:03:46;62.11;55.38;76.45;;
29182;Laerm;19872;48.800;8.996;2023-05-10T08:06:12;60.28;47.45;65.80;;
29182;Laerm;19872;48.800;8.996;2023-05-10T08:08:38;60.89;47.06;67.40;;
29182;Laerm;19872;48.800;8.996;2023-05-10T08:11:04;61.97;47.89;76.10;;
29182;Laerm;19872;48.800;8.996;2023-05-10T08:13:30;60.72;47.45;66.13;;
29182;Laerm;19872;48.800;8.996;2023-05-10T08:15:56;61.27;52.16;67.08;;
29182;Laerm;19872;48.800;8.996;2023-05-10T08:18:22;61.54;49.75;68.40;;
29182;Laerm;19872;48.800;8.996;2023-05-10T08:20:48;62.20;53.64;69.15;;
29182;Laerm;19872;48.800;8.996;2023-05-10T08:23:14;61.66;51.91;66.32;;
29182;Laerm;19872;48.800;8.996;2023-05-10T08:25:40;62.33;51.28;75.68;;
29182;Laerm;19872;48.800;8.996;2023-05-10T08:28:06;61.14;43.45;75.45;;
29182;Laerm;19872;48.800;8.996;2023-05-10T08:30:32;62.04;52.21;73.00;;
29182;Laerm;19872;48.800;8.996;2023-05-10T08:32:58;60.02;49.26;64.84;;
29182;Laerm;19872;48.800;8.996;2023-05-10T08:35:24;59.71;48.88;66.56;;
29182;Laerm;19872;48.800;8.996;2023-05-10T08:37:50;62.32;52.57;70.56;;
29182;Laerm;19872;48.800;8.996;2023-05-10T08:40:16;61.78;51.62;67.52;;
29182;Laerm;19872;48.800;8.996;2023-05-10T08:42:45;60.80;47.30;69.49;;
29182;Laerm;19872;48.800;8.996;2023-05-10T08:45:14;60.92;51.67;65.98;;
29182;Laerm;19872;48.800;8.996;2023-05-10T08:47:40;62.19;52.84;66.53;;
29182;Laerm;19872;48.800;8.996;2023-05-10T08:50:06;61.94;52.91;68.07;;
29182;Laerm;19872;48.800;8.996;2023-05-10T08:52:33;61.82;55.31;66.32;;
29182;Laerm;19872;48.800;8.996;2023-05-10T08:55:04;62.80;49.56;68.61;;
29182;Laerm;19872;48.800;8.996;2023-05-10T08:57:30;62.18;54.77;69.00;;
29182;Laerm;19872;48.800;8.996;2023-05-10T08:59:56;62.26;51.42;68.48;;
29182;Laerm;19872;48.800;8.996;2023-05-10T09:02:22;62.43;45.73;69.50;;
29182;Laerm;19872;48.800;8.996;2023-05-10T09:04:48;63.32;53.47;74.62;;
29182;Laerm;19872;48.800;8.996;2023-05-10T09:07:14;62.00;48.92;71.09;;
29182;Laerm;19872;48.800;8.996;2023-05-10T09:09:41;60.95;49.00;66.60;;
29182;Laerm;19872;48.800;8.996;2023-05-10T09:12:07;61.85;52.92;67.21;;
29182;Laerm;19872;48.800;8.996;2023-05-10T09:14:36;61.16;50.02;68.46;;
29182;Laerm;19872;48.800;8.996;2023-05-10T09:17:02;60.03;51.37;74.10;;
29182;Laerm;19872;48.800;8.996;2023-05-10T09:19:28;63.29;59.00;67.16;;
29182;Laerm;19872;48.800;8.996;2023-05-10T09:21:54;60.91;53.76;74.21;;
29182;Laerm;19872;48.800;8.996;2023-05-10T09:24:20;62.67;54.10;70.12;;
29182;Laerm;19872;48.800;8.996;2023-05-10T09:26:50;61.22;50.80;73.44;;
29182;Laerm;19872;48.800;8.996;2023-05-10T09:29:16;63.36;56.13;68.26;;
29182;Laerm;19872;48.800;8.996;2023-05-10T09:31:46;61.85;50.11;67.00;;
29182;Laerm;19872;48.800;8.996;2023-05-10T09:34:18;62.40;47.57;69.46;;
29182;Laerm;19872;48.800;8.996;2023-05-10T09:36:53;62.25;52.68;67.29;;
29182;Laerm;19872;48.800;8.996;2023-05-10T09:39:19;61.76;48.61;68.92;;
29182;Laerm;19872;48.800;8.996;2023-05-10T09:41:45;62.08;52.78;73.26;;
29182;Laerm;19872;48.800;8.996;2023-05-10T09:44:12;63.08;50.40;79.65;;
29182;Laerm;19872;48.800;8.996;2023-05-10T09:46:42;61.19;53.15;66.00;;
29182;Laerm;19872;48.800;8.996;2023-05-10T09:49:08;61.24;48.64;66.38;;
29182;Laerm;19872;48.800;8.996;2023-05-10T09:51:34;61.74;49.75;66.41;;
29182;Laerm;19872;48.800;8.996;2023-05-10T09:56:35;60.85;46.44;65.85;;
29182;Laerm;19872;48.800;8.996;2023-05-10T09:59:04;63.42;52.78;72.02;;
29182;Laerm;19872;48.800;8.996;2023-05-10T10:01:30;60.93;53.97;67.02;;
29182;Laerm;19872;48.800;8.996;2023-05-10T10:03:56;62.22;50.44;68.08;;
29182;Laerm;19872;48.800;8.996;2023-05-10T10:06:23;62.82;52.15;67.55;;
29182;Laerm;19872;48.800;8.996;2023-05-10T10:08:49;63.64;53.93;80.78;;
29182;Laerm;19872;48.800;8.996;2023-05-10T10:11:15;62.54;53.17;67.31;;
29182;Laerm;19872;48.800;8.996;2023-05-10T10:13:42;62.93;57.57;75.17;;
29182;Laerm;19872;48.800;8.996;2023-05-10T10:16:08;61.88;50.84;66.59;;
29182;Laerm;19872;48.800;8.996;2023-05-10T10:18:34;63.82;52.00;69.60;;
29182;Laerm;19872;48.800;8.996;2023-05-10T10:21:04;62.24;45.47;69.03;;
29182;Laerm;19872;48.800;8.996;2023-05-10T10:23:30;62.52;49.02;68.47;;
29182;Laerm;19872;48.800;8.996;2023-05-10T10:25:56;62.30;46.04;69.96;;
29182;Laerm;19872;48.800;8.996;2023-05-10T10:30:59;62.91;50.43;72.63;;
29182;Laerm;19872;48.800;8.996;2023-05-10T10:36:11;62.18;50.09;68.13;;
29182;Laerm;19872;48.800;8.996;2023-05-10T10:38:54;63.63;49.85;70.91;;
29182;Laerm;19872;48.800;8.996;2023-05-10T10:41:31;63.42;48.09;76.75;;
29182;Laerm;19872;48.800;8.996;2023-05-10T10:47:22;62.52;50.57;70.14;;
29182;Laerm;19872;48.800;8.996;2023-05-10T10:57:21;62.73;49.52;68.68;;
29182;Laerm;19872;48.800;8.996;2023-05-10T10:59:47;62.47;58.34;67.47;;
29182;Laerm;19872;48.800;8.996;2023-05-10T11:04:57;61.74;47.18;67.81;;
29182;Laerm;19872;48.800;8.996;2023-05-10T11:07:23;62.47;48.78;74.17;;
29182;Laerm;19872;48.800;8.996;2023-05-10T11:09:49;61.88;52.84;67.35;;
29182;Laerm;19872;48.800;8.996;2023-05-10T11:12:15;62.22;52.91;66.89;;
29182;Laerm;19872;48.800;8.996;2023-05-10T11:14:41;63.13;53.13;68.87;;
29182;Laerm;19872;48.800;8.996;2023-05-10T11:17:22;63.43;56.12;81.17;;
29182;Laerm;19872;48.800;8.996;2023-05-10T11:22:50;61.46;49.90;67.20;;
29182;Laerm;19872;48.800;8.996;2023-05-10T11:25:17;62.48;49.29;68.02;;
29182;Laerm;19872;48.800;8.996;2023-05-10T11:27:43;60.34;46.78;65.98;;
29182;Laerm;19872;48.800;8.996;2023-05-10T11:30:10;62.47;48.69;68.18;;
29182;Laerm;19872;48.800;8.996;2023-05-10T11:32:39;64.91;53.81;80.90;;
29182;Laerm;19872;48.800;8.996;2023-05-10T11:35:06;62.23;51.88;71.32;;
29182;Laerm;19872;48.800;8.996;2023-05-10T11:37:32;61.21;48.64;67.18;;
29182;Laerm;19872;48.800;8.996;2023-05-10T11:39:59;61.60;54.70;65.77;;
29182;Laerm;19872;48.800;8.996;2023-05-10T11:42:25;62.02;50.83;66.86;;
29182;Laerm;19872;48.800;8.996;2023-05-10T11:44:51;62.00;49.77;66.85;;
29182;Laerm;19872;48.800;8.996;2023-05-10T11:47:17;62.73;52.53;67.40;;
29182;Laerm;19872;48.800;8.996;2023-05-10T11:49:43;63.86;53.75;73.84;;
29182;Laerm;19872;48.800;8.996;2023-05-10T11:52:09;61.65;55.71;67.50;;
29182;Laerm;19872;48.800;8.996;2023-05-10T11:54:36;62.02;55.04;73.98;;
29182;Laerm;19872;48.800;8.996;2023-05-10T11:57:02;62.58;46.99;71.79;;
29182;Laerm;19872;48.800;8.996;2023-05-10T11:59:28;61.22;48.03;68.35;;
29182;Laerm;19872;48.800;8.996;2023-05-10T12:01:54;62.69;50.43;68.46;;
29182;Laerm;19872;48.800;8.996;2023-05-10T12:04:20;63.20;53.22;69.29;;
29182;Laerm;19872;48.800;8.996;2023-05-10T12:06:46;61.50;49.91;68.20;;
29182;Laerm;19872;48.800;8.996;2023-05-10T12:09:12;62.57;45.77;73.90;;
29182;Laerm;19872;48.800;8.996;2023-05-10T12:11:39;62.59;54.85;67.10;;
29182;Laerm;19872;48.800;8.996;2023-05-10T12:14:06;63.10;52.10;68.76;;
29182;Laerm;19872;48.800;8.996;2023-05-10T12:16:32;64.31;53.90;71.22;;
29182;Laerm;19872;48.800;8.996;2023-05-10T12:18:59;61.54;45.44;72.86;;
29182;Laerm;19872;48.800;8.996;2023-05-10T12:21:25;61.97;51.63;67.30;;
29182;Laerm;19872;48.800;8.996;2023-05-10T12:23:53;61.86;48.85;75.08;;
29182;Laerm;19872;48.800;8.996;2023-05-10T12:26:22;61.34;48.44;67.29;;
29182;Laerm;19872;48.800;8.996;2023-05-10T12:28:49;61.47;47.75;67.67;;
29182;Laerm;19872;48.800;8.996;2023-05-10T12:31:15;60.94;52.71;66.78;;
29182;Laerm;19872;48.800;8.996;2023-05-10T12:33:43;62.84;55.04;67.18;;
29182;Laerm;19872;48.800;8.996;2023-05-10T12:36:11;61.82;48.17;65.49;;
29182;Laerm;19872;48.800;8.996;2023-05-10T12:38:40;61.81;47.98;75.73;;
29182;Laerm;19872;48.800;8.996;2023-05-10T12:41:13;59.75;44.37;66.44;;
29182;Laerm;19872;48.800;8.996;2023-05-10T12:43:39;63.30;54.08;68.59;;
29182;Laerm;19872;48.800;8.996;2023-05-10T12:48:31;62.50;52.90;66.71;;
29182;Laerm;19872;48.800;8.996;2023-05-10T12:50:59;61.74;47.58;67.57;;
29182;Laerm;19872;48.800;8.996;2023-05-10T12:53:25;62.96;48.35;73.16;;
29182;Laerm;19872;48.800;8.996;2023-05-10T12:55:50;63.73;54.89;76.13;;
29182;Laerm;19872;48.800;8.996;2023-05-10T12:58:16;62.04;51.96;67.79;;
29182;Laerm;19872;48.800;8.996;2023-05-10T13:00:42;61.75;53.10;69.16;;
29182;Laerm;19872;48.800;8.996;2023-05-10T13:03:08;62.76;48.08;66.23;;
29182;Laerm;19872;48.800;8.996;2023-05-10T13:05:35;61.57;47.86;67.55;;
29182;Laerm;19872;48.800;8.996;2023-05-10T13:08:01;60.85;48.02;66.28;;
29182;Laerm;19872;48.800;8.996;2023-05-10T13:10:29;62.29;52.94;67.73;;
29182;Laerm;19872;48.800;8.996;2023-05-10T13:12:55;63.56;56.40;71.18;;
29182;Laerm;19872;48.800;8.996;2023-05-10T13:15:21;61.53;52.94;66.10;;
29182;Laerm;19872;48.800;8.996;2023-05-10T13:17:47;62.48;55.70;69.89;;
29182;Laerm;19872;48.800;8.996;2023-05-10T13:20:12;61.69;47.78;66.20;;
29182;Laerm;19872;48.800;8.996;2023-05-10T13:22:39;62.71;45.86;68.79;;
29182;Laerm;19872;48.800;8.996;2023-05-10T13:25:04;62.21;52.11;66.41;;
29182;Laerm;19872;48.800;8.996;2023-05-10T13:27:30;64.07;58.10;77.68;;
29182;Laerm;19872;48.800;8.996;2023-05-10T13:29:56;62.18;48.60;67.21;;
29182;Laerm;19872;48.800;8.996;2023-05-10T13:32:24;61.09;49.44;66.14;;
29182;Laerm;19872;48.800;8.996;2023-05-10T13:34:50;63.11;55.51;68.38;;
29182;Laerm;19872;48.800;8.996;2023-05-10T13:37:16;62.92;49.01;69.96;;
29182;Laerm;19872;48.800;8.996;2023-05-10T13:39:42;62.87;50.06;67.62;;
29182;Laerm;19872;48.800;8.996;2023-05-10T13:42:08;61.16;46.32;66.89;;
29182;Laerm;19872;48.800;8.996;2023-05-10T13:44:34;62.71;58.42;66.67;;
29182;Laerm;19872;48.800;8.996;2023-05-10T13:47:01;62.40;55.62;72.02;;
29182;Laerm;19872;48.800;8.996;2023-05-10T13:49:26;63.60;55.60;79.43;;
29182;Laerm;19872;48.800;8.996;2023-05-10T13:51:52;63.17;55.34;67.77;;
29182;Laerm;19872;48.800;8.996;2023-05-10T13:54:18;63.82;54.48;73.21;;
29182;Laerm;19872;48.800;8.996;2023-05-10T13:56:45;62.28;49.77;68.13;;
29182;Laerm;19872;48.800;8.996;2023-05-10T13:59:12;62.66;56.14;66.91;;
29182;Laerm;19872;48.800;8.996;2023-05-10T14:01:39;61.63;53.10;67.35;;
29182;Laerm;19872;48.800;8.996;2023-05-10T14:04:05;61.98;51.19;66.36;;
29182;Laerm;19872;48.800;8.996;2023-05-10T14:06:31;63.14;53.75;68.36;;
29182;Laerm;19872;48.800;8.996;2023-05-10T14:08:57;62.58;51.87;68.57;;
29182;Laerm;19872;48.800;8.996;2023-05-10T14:11:23;62.39;49.43;72.35;;
29182;Laerm;19872;48.800;8.996;2023-05-10T14:13:49;63.96;52.05;68.11;;
29182;Laerm;19872;48.800;8.996;2023-05-10T14:16:14;63.90;50.22;67.82;;
29182;Laerm;19872;48.800;8.996;2023-05-10T14:18:40;63.10;54.59;69.74;;
29182;Laerm;19872;48.800;8.996;2023-05-10T14:21:06;63.64;55.04;70.59;;